Clutier, Iowa
Current Conditions -  °F | °C
As of 12:55 PM on Sunday 23 Nov 2014 (Local Time) from KVTI Reporting Station
Moderate Rain Moderate Rain  
Wind Chill: 50°   Ceiling: 500
Heat Index: 50°   Visibility: 5mi
Dew Point: 49°   Wind: 0mph
Humidity: 95%   Direction: NA
Pressure: 29.42"   Gusts: NA
Location:  42.08°N, 92.4°W
Report Text: KVTI 231855Z AUTO 00000KT 5SM RA OVC005 10/09 A2942 RMK AO2 P0007 T01010093
Loading
Personal Weather Stations






























Interactive Weather Map New forecast layout! Learn more

10-Day Weather Forecast

Advertisements
Track Severe Weather on mobile